sensor_id;sensor_type;location;lat;lon;timestamp;P1;durP1;ratioP1;P2;durP2;ratioP2
40595;SDS011;26304;48.794;9.820;2023-12-20T00:02:09;2.13;;;2.03;;
40595;SDS011;26304;48.794;9.820;2023-12-20T00:04:31;2.15;;;2.05;;
40595;SDS011;26304;48.794;9.820;2023-12-20T00:06:53;2.03;;;1.92;;
40595;SDS011;26304;48.794;9.820;2023-12-20T00:09:17;1.88;;;1.77;;
40595;SDS011;26304;48.794;9.820;2023-12-20T00:11:39;1.90;;;1.80;;
40595;SDS011;26304;48.794;9.820;2023-12-20T00:14:03;1.73;;;1.63;;
40595;SDS011;26304;48.794;9.820;2023-12-20T00:16:25;1.80;;;1.70;;
40595;SDS011;26304;48.794;9.820;2023-12-20T00:18:47;1.80;;;1.70;;
40595;SDS011;26304;48.794;9.820;2023-12-20T00:21:10;1.83;;;1.73;;
40595;SDS011;26304;48.794;9.820;2023-12-20T00:23:32;1.80;;;1.70;;
40595;SDS011;26304;48.794;9.820;2023-12-20T00:25:56;1.80;;;1.70;;
40595;SDS011;26304;48.794;9.820;2023-12-20T00:28:18;1.63;;;1.52;;
40595;SDS011;26304;48.794;9.820;2023-12-20T00:30:41;1.48;;;1.38;;
40595;SDS011;26304;48.794;9.820;2023-12-20T00:33:03;1.60;;;1.50;;
40595;SDS011;26304;48.794;9.820;2023-12-20T00:35:26;1.63;;;1.52;;
40595;SDS011;26304;48.794;9.820;2023-12-20T00:37:48;1.55;;;1.45;;
40595;SDS011;26304;48.794;9.820;2023-12-20T00:40:11;1.75;;;1.65;;
40595;SDS011;26304;48.794;9.820;2023-12-20T00:42:35;1.70;;;1.60;;
40595;SDS011;26304;48.794;9.820;2023-12-20T00:44:58;1.30;;;1.20;;
40595;SDS011;26304;48.794;9.820;2023-12-20T00:47:20;1.77;;;1.67;;
40595;SDS011;26304;48.794;9.820;2023-12-20T00:49:43;1.63;;;1.52;;
40595;SDS011;26304;48.794;9.820;2023-12-20T00:52:05;1.77;;;1.67;;
40595;SDS011;26304;48.794;9.820;2023-12-20T00:54:28;1.48;;;1.38;;
40595;SDS011;26304;48.794;9.820;2023-12-20T00:56:51;1.83;;;1.73;;
40595;SDS011;26304;48.794;9.820;2023-12-20T00:59:16;1.38;;;1.27;;
40595;SDS011;26304;48.794;9.820;2023-12-20T01:01:38;1.77;;;1.67;;
40595;SDS011;26304;48.794;9.820;2023-12-20T01:04:01;1.85;;;1.75;;
40595;SDS011;26304;48.794;9.820;2023-12-20T01:06:23;1.52;;;1.42;;
40595;SDS011;26304;48.794;9.820;2023-12-20T01:08:46;1.85;;;1.75;;
40595;SDS011;26304;48.794;9.820;2023-12-20T01:11:08;1.60;;;1.50;;
40595;SDS011;26304;48.794;9.820;2023-12-20T01:13:31;1.80;;;1.70;;
40595;SDS011;26304;48.794;9.820;2023-12-20T01:15:53;1.63;;;1.52;;
40595;SDS011;26304;48.794;9.820;2023-12-20T01:18:16;1.65;;;1.55;;
40595;SDS011;26304;48.794;9.820;2023-12-20T01:20:38;1.20;;;1.20;;
40595;SDS011;26304;48.794;9.820;2023-12-20T01:23:01;1.88;;;1.77;;
40595;SDS011;26304;48.794;9.820;2023-12-20T01:25:23;1.60;;;1.50;;
40595;SDS011;26304;48.794;9.820;2023-12-20T01:27:46;1.70;;;1.60;;
40595;SDS011;26304;48.794;9.820;2023-12-20T01:30:08;1.52;;;1.42;;
40595;SDS011;26304;48.794;9.820;2023-12-20T01:32:33;1.35;;;1.25;;
40595;SDS011;26304;48.794;9.820;2023-12-20T01:34:55;1.40;;;1.30;;
40595;SDS011;26304;48.794;9.820;2023-12-20T01:37:17;1.30;;;1.20;;
40595;SDS011;26304;48.794;9.820;2023-12-20T01:39:40;1.60;;;1.50;;
40595;SDS011;26304;48.794;9.820;2023-12-20T01:42:02;1.65;;;1.55;;
40595;SDS011;26304;48.794;9.820;2023-12-20T01:44:25;1.40;;;1.30;;
40595;SDS011;26304;48.794;9.820;2023-12-20T01:46:47;1.33;;;1.30;;
40595;SDS011;26304;48.794;9.820;2023-12-20T01:49:11;1.50;;;1.40;;
40595;SDS011;26304;48.794;9.820;2023-12-20T01:51:34;1.30;;;1.20;;
40595;SDS011;26304;48.794;9.820;2023-12-20T01:53:58;1.60;;;1.50;;
40595;SDS011;26304;48.794;9.820;2023-12-20T01:56:22;1.50;;;1.40;;
40595;SDS011;26304;48.794;9.820;2023-12-20T01:58:45;1.60;;;1.50;;
40595;SDS011;26304;48.794;9.820;2023-12-20T02:01:09;1.50;;;1.40;;
40595;SDS011;26304;48.794;9.820;2023-12-20T02:03:32;1.10;;;1.10;;
40595;SDS011;26304;48.794;9.820;2023-12-20T02:05:58;1.50;;;1.40;;
40595;SDS011;26304;48.794;9.820;2023-12-20T02:08:21;1.33;;;1.25;;
40595;SDS011;26304;48.794;9.820;2023-12-20T02:10:43;1.25;;;1.17;;
40595;SDS011;26304;48.794;9.820;2023-12-20T02:13:06;1.25;;;1.20;;
40595;SDS011;26304;48.794;9.820;2023-12-20T02:15:29;1.13;;;1.10;;
40595;SDS011;26304;48.794;9.820;2023-12-20T02:17:51;1.33;;;1.23;;
40595;SDS011;26304;48.794;9.820;2023-12-20T02:20:14;1.45;;;1.35;;
40595;SDS011;26304;48.794;9.820;2023-12-20T02:22:37;1.58;;;1.48;;
40595;SDS011;26304;48.794;9.820;2023-12-20T02:25:00;1.27;;;1.17;;
40595;SDS011;26304;48.794;9.820;2023-12-20T02:27:22;2.03;;;1.27;;
40595;SDS011;26304;48.794;9.820;2023-12-20T02:29:46;1.45;;;1.35;;
40595;SDS011;26304;48.794;9.820;2023-12-20T02:32:09;1.30;;;1.20;;
40595;SDS011;26304;48.794;9.820;2023-12-20T02:34:31;1.25;;;1.15;;
40595;SDS011;26304;48.794;9.820;2023-12-20T02:36:54;1.40;;;1.30;;
40595;SDS011;26304;48.794;9.820;2023-12-20T02:39:18;1.58;;;1.48;;
40595;SDS011;26304;48.794;9.820;2023-12-20T02:41:41;1.20;;;1.20;;
40595;SDS011;26304;48.794;9.820;2023-12-20T02:44:03;1.40;;;1.30;;
40595;SDS011;26304;48.794;9.820;2023-12-20T02:46:26;1.25;;;1.17;;
40595;SDS011;26304;48.794;9.820;2023-12-20T02:48:48;1.20;;;1.20;;
40595;SDS011;26304;48.794;9.820;2023-12-20T02:51:11;1.40;;;1.30;;
40595;SDS011;26304;48.794;9.820;2023-12-20T02:53:33;1.33;;;1.23;;
40595;SDS011;26304;48.794;9.820;2023-12-20T02:55:57;1.25;;;1.15;;
40595;SDS011;26304;48.794;9.820;2023-12-20T02:58:19;1.17;;;1.17;;
40595;SDS011;26304;48.794;9.820;2023-12-20T03:00:42;1.17;;;1.15;;
40595;SDS011;26304;48.794;9.820;2023-12-20T03:03:04;1.40;;;1.30;;
40595;SDS011;26304;48.794;9.820;2023-12-20T03:05:26;1.10;;;1.10;;
40595;SDS011;26304;48.794;9.820;2023-12-20T03:07:48;1.00;;;1.00;;
40595;SDS011;26304;48.794;9.820;2023-12-20T03:10:10;1.13;;;1.02;;
40595;SDS011;26304;48.794;9.820;2023-12-20T03:12:34;1.40;;;1.30;;
40595;SDS011;26304;48.794;9.820;2023-12-20T03:14:56;1.35;;;1.25;;
40595;SDS011;26304;48.794;9.820;2023-12-20T03:17:19;0.90;;;0.90;;
40595;SDS011;26304;48.794;9.820;2023-12-20T03:19:41;1.25;;;1.20;;
40595;SDS011;26304;48.794;9.820;2023-12-20T03:22:04;0.98;;;0.98;;
40595;SDS011;26304;48.794;9.820;2023-12-20T03:24:26;1.00;;;1.00;;
40595;SDS011;26304;48.794;9.820;2023-12-20T03:26:49;1.63;;;1.10;;
40595;SDS011;26304;48.794;9.820;2023-12-20T03:29:12;1.17;;;1.08;;
40595;SDS011;26304;48.794;9.820;2023-12-20T03:31:35;1.30;;;1.20;;
40595;SDS011;26304;48.794;9.820;2023-12-20T03:33:57;1.27;;;1.17;;
40595;SDS011;26304;48.794;9.820;2023-12-20T03:36:19;1.13;;;1.13;;
40595;SDS011;26304;48.794;9.820;2023-12-20T03:38:41;1.20;;;1.10;;
40595;SDS011;26304;48.794;9.820;2023-12-20T03:41:04;1.27;;;1.20;;
40595;SDS011;26304;48.794;9.820;2023-12-20T03:43:26;1.20;;;1.10;;
40595;SDS011;26304;48.794;9.820;2023-12-20T03:45:50;1.25;;;1.15;;
40595;SDS011;26304;48.794;9.820;2023-12-20T03:48:12;1.05;;;1.05;;
40595;SDS011;26304;48.794;9.820;2023-12-20T03:50:35;1.30;;;1.20;;
40595;SDS011;26304;48.794;9.820;2023-12-20T03:52:57;1.20;;;1.10;;
40595;SDS011;26304;48.794;9.820;2023-12-20T03:55:20;1.08;;;1.08;;
40595;SDS011;26304;48.794;9.820;2023-12-20T03:57:42;1.10;;;1.10;;
40595;SDS011;26304;48.794;9.820;2023-12-20T04:00:06;1.17;;;1.10;;
40595;SDS011;26304;48.794;9.820;2023-12-20T04:02:32;1.15;;;1.10;;
40595;SDS011;26304;48.794;9.820;2023-12-20T04:04:55;1.00;;;0.90;;
40595;SDS011;26304;48.794;9.820;2023-12-20T04:07:17;0.93;;;0.93;;
40595;SDS011;26304;48.794;9.820;2023-12-20T04:09:40;1.00;;;1.00;;
40595;SDS011;26304;48.794;9.820;2023-12-20T04:12:02;1.00;;;1.00;;
40595;SDS011;26304;48.794;9.820;2023-12-20T04:14:26;0.90;;;0.90;;
40595;SDS011;26304;48.794;9.820;2023-12-20T04:16:49;1.00;;;1.00;;
40595;SDS011;26304;48.794;9.820;2023-12-20T04:19:12;1.10;;;1.05;;
40595;SDS011;26304;48.794;9.820;2023-12-20T04:21:35;0.85;;;0.85;;
40595;SDS011;26304;48.794;9.820;2023-12-20T04:23:57;1.02;;;1.02;;
40595;SDS011;26304;48.794;9.820;2023-12-20T04:26:19;0.80;;;0.80;;
40595;SDS011;26304;48.794;9.820;2023-12-20T04:28:42;1.73;;;1.10;;
40595;SDS011;26304;48.794;9.820;2023-12-20T04:31:04;0.73;;;0.73;;
40595;SDS011;26304;48.794;9.820;2023-12-20T04:33:27;0.70;;;0.70;;
40595;SDS011;26304;48.794;9.820;2023-12-20T04:35:51;0.90;;;0.90;;
40595;SDS011;26304;48.794;9.820;2023-12-20T04:38:13;1.00;;;1.00;;
40595;SDS011;26304;48.794;9.820;2023-12-20T04:40:35;0.80;;;0.80;;
40595;SDS011;26304;48.794;9.820;2023-12-20T04:42:58;0.88;;;0.88;;
40595;SDS011;26304;48.794;9.820;2023-12-20T04:45:20;1.30;;;1.20;;
40595;SDS011;26304;48.794;9.820;2023-12-20T04:47:44;0.80;;;0.80;;
40595;SDS011;26304;48.794;9.820;2023-12-20T04:50:08;0.90;;;0.90;;
40595;SDS011;26304;48.794;9.820;2023-12-20T04:52:33;1.00;;;0.90;;
40595;SDS011;26304;48.794;9.820;2023-12-20T04:54:56;1.00;;;1.00;;
40595;SDS011;26304;48.794;9.820;2023-12-20T04:57:18;0.98;;;0.98;;
40595;SDS011;26304;48.794;9.820;2023-12-20T04:59:40;0.90;;;0.90;;
40595;SDS011;26304;48.794;9.820;2023-12-20T05:02:03;0.93;;;0.93;;
40595;SDS011;26304;48.794;9.820;2023-12-20T05:04:25;0.93;;;0.93;;
40595;SDS011;26304;48.794;9.820;2023-12-20T05:06:48;0.90;;;0.90;;
40595;SDS011;26304;48.794;9.820;2023-12-20T05:09:13;0.90;;;0.90;;
40595;SDS011;26304;48.794;9.820;2023-12-20T05:11:35;1.00;;;1.00;;
40595;SDS011;26304;48.794;9.820;2023-12-20T05:13:57;0.90;;;0.90;;
40595;SDS011;26304;48.794;9.820;2023-12-20T05:16:20;1.70;;;0.77;;
40595;SDS011;26304;48.794;9.820;2023-12-20T05:18:42;0.80;;;0.80;;
40595;SDS011;26304;48.794;9.820;2023-12-20T05:21:05;1.20;;;1.10;;
40595;SDS011;26304;48.794;9.820;2023-12-20T05:23:27;0.80;;;0.80;;
40595;SDS011;26304;48.794;9.820;2023-12-20T05:25:51;3.83;;;0.90;;
40595;SDS011;26304;48.794;9.820;2023-12-20T05:28:13;1.60;;;0.90;;
40595;SDS011;26304;48.794;9.820;2023-12-20T05:30:36;0.85;;;0.85;;
40595;SDS011;26304;48.794;9.820;2023-12-20T05:32:58;2.08;;;1.10;;
40595;SDS011;26304;48.794;9.820;2023-12-20T05:35:20;0.85;;;0.82;;
40595;SDS011;26304;48.794;9.820;2023-12-20T05:37:44;0.88;;;0.80;;
40595;SDS011;26304;48.794;9.820;2023-12-20T05:40:06;0.80;;;0.80;;
40595;SDS011;26304;48.794;9.820;2023-12-20T05:42:32;0.80;;;0.80;;
40595;SDS011;26304;48.794;9.820;2023-12-20T05:44:54;1.60;;;0.70;;
40595;SDS011;26304;48.794;9.820;2023-12-20T05:47:17;0.70;;;0.70;;
40595;SDS011;26304;48.794;9.820;2023-12-20T05:49:39;1.00;;;0.88;;
40595;SDS011;26304;48.794;9.820;2023-12-20T05:52:02;0.80;;;0.80;;
40595;SDS011;26304;48.794;9.820;2023-12-20T05:54:25;0.80;;;0.80;;
40595;SDS011;26304;48.794;9.820;2023-12-20T05:56:47;3.22;;;0.85;;
40595;SDS011;26304;48.794;9.820;2023-12-20T05:59:11;1.23;;;0.80;;
40595;SDS011;26304;48.794;9.820;2023-12-20T06:01:33;0.80;;;0.80;;
40595;SDS011;26304;48.794;9.820;2023-12-20T06:03:56;1.38;;;1.15;;
40595;SDS011;26304;48.794;9.820;2023-12-20T06:06:18;1.30;;;0.88;;
40595;SDS011;26304;48.794;9.820;2023-12-20T06:08:40;1.75;;;0.93;;
40595;SDS011;26304;48.794;9.820;2023-12-20T06:11:04;1.58;;;0.80;;
40595;SDS011;26304;48.794;9.820;2023-12-20T06:13:27;1.52;;;0.90;;
40595;SDS011;26304;48.794;9.820;2023-12-20T06:15:51;0.70;;;0.70;;
40595;SDS011;26304;48.794;9.820;2023-12-20T06:18:13;2.90;;;0.90;;
40595;SDS011;26304;48.794;9.820;2023-12-20T06:20:36;1.13;;;0.88;;
40595;SDS011;26304;48.794;9.820;2023-12-20T06:22:58;2.45;;;0.60;;
40595;SDS011;26304;48.794;9.820;2023-12-20T06:25:21;0.80;;;0.80;;
40595;SDS011;26304;48.794;9.820;2023-12-20T06:27:43;1.58;;;0.90;;
40595;SDS011;26304;48.794;9.820;2023-12-20T06:30:05;1.75;;;1.00;;
40595;SDS011;26304;48.794;9.820;2023-12-20T06:32:31;1.42;;;0.95;;
40595;SDS011;26304;48.794;9.820;2023-12-20T06:34:55;1.27;;;0.80;;
40595;SDS011;26304;48.794;9.820;2023-12-20T06:37:17;0.77;;;0.75;;
40595;SDS011;26304;48.794;9.820;2023-12-20T06:39:40;0.82;;;0.80;;
40595;SDS011;26304;48.794;9.820;2023-12-20T06:42:02;2.35;;;0.80;;
40595;SDS011;26304;48.794;9.820;2023-12-20T06:44:25;2.40;;;1.10;;
40595;SDS011;26304;48.794;9.820;2023-12-20T06:46:48;3.00;;;0.82;;
40595;SDS011;26304;48.794;9.820;2023-12-20T06:49:11;0.70;;;0.60;;
40595;SDS011;26304;48.794;9.820;2023-12-20T06:51:34;0.73;;;0.73;;
40595;SDS011;26304;48.794;9.820;2023-12-20T06:53:56;1.00;;;0.90;;
40595;SDS011;26304;48.794;9.820;2023-12-20T06:56:18;1.10;;;0.73;;
40595;SDS011;26304;48.794;9.820;2023-12-20T06:58:41;1.25;;;0.90;;
40595;SDS011;26304;48.794;9.820;2023-12-20T07:01:02;3.13;;;0.98;;
40595;SDS011;26304;48.794;9.820;2023-12-20T07:03:25;1.98;;;0.68;;
40595;SDS011;26304;48.794;9.820;2023-12-20T07:05:49;0.80;;;0.80;;
40595;SDS011;26304;48.794;9.820;2023-12-20T07:08:12;0.95;;;0.75;;
40595;SDS011;26304;48.794;9.820;2023-12-20T07:10:36;0.80;;;0.80;;
40595;SDS011;26304;48.794;9.820;2023-12-20T07:12:59;0.93;;;0.80;;
40595;SDS011;26304;48.794;9.820;2023-12-20T07:15:22;0.60;;;0.60;;
40595;SDS011;26304;48.794;9.820;2023-12-20T07:17:45;1.58;;;0.70;;
40595;SDS011;26304;48.794;9.820;2023-12-20T07:20:08;0.77;;;0.63;;
40595;SDS011;26304;48.794;9.820;2023-12-20T07:22:33;1.25;;;0.80;;
40595;SDS011;26304;48.794;9.820;2023-12-20T07:24:55;1.30;;;0.50;;
40595;SDS011;26304;48.794;9.820;2023-12-20T07:27:18;1.20;;;0.80;;
40595;SDS011;26304;48.794;9.820;2023-12-20T07:29:40;0.60;;;0.60;;
40595;SDS011;26304;48.794;9.820;2023-12-20T07:32:03;0.50;;;0.50;;
40595;SDS011;26304;48.794;9.820;2023-12-20T07:34:26;0.90;;;0.50;;
40595;SDS011;26304;48.794;9.820;2023-12-20T07:36:48;1.05;;;0.70;;
40595;SDS011;26304;48.794;9.820;2023-12-20T07:39:12;2.42;;;0.57;;
40595;SDS011;26304;48.794;9.820;2023-12-20T07:41:36;0.82;;;0.77;;
40595;SDS011;26304;48.794;9.820;2023-12-20T07:43:58;0.50;;;0.50;;
40595;SDS011;26304;48.794;9.820;2023-12-20T07:46:21;0.93;;;0.68;;
40595;SDS011;26304;48.794;9.820;2023-12-20T07:48:44;1.05;;;0.80;;
40595;SDS011;26304;48.794;9.820;2023-12-20T07:51:07;0.60;;;0.60;;
40595;SDS011;26304;48.794;9.820;2023-12-20T07:53:30;1.48;;;0.63;;
40595;SDS011;26304;48.794;9.820;2023-12-20T07:55:55;0.55;;;0.55;;
40595;SDS011;26304;48.794;9.820;2023-12-20T07:58:17;1.52;;;0.60;;
40595;SDS011;26304;48.794;9.820;2023-12-20T08:00:40;0.88;;;0.80;;
40595;SDS011;26304;48.794;9.820;2023-12-20T08:03:02;1.52;;;0.73;;
40595;SDS011;26304;48.794;9.820;2023-12-20T08:05:25;1.40;;;0.70;;
40595;SDS011;26304;48.794;9.820;2023-12-20T08:07:47;1.23;;;0.52;;
40595;SDS011;26304;48.794;9.820;2023-12-20T08:10:09;0.60;;;0.60;;
40595;SDS011;26304;48.794;9.820;2023-12-20T08:12:33;0.50;;;0.50;;
40595;SDS011;26304;48.794;9.820;2023-12-20T08:14:56;0.60;;;0.60;;
40595;SDS011;26304;48.794;9.820;2023-12-20T08:17:18;0.70;;;0.70;;
40595;SDS011;26304;48.794;9.820;2023-12-20T08:19:41;0.73;;;0.73;;
40595;SDS011;26304;48.794;9.820;2023-12-20T08:22:03;0.40;;;0.40;;
40595;SDS011;26304;48.794;9.820;2023-12-20T08:24:26;0.65;;;0.65;;
40595;SDS011;26304;48.794;9.820;2023-12-20T08:26:48;0.73;;;0.60;;
40595;SDS011;26304;48.794;9.820;2023-12-20T08:29:13;0.50;;;0.50;;
40595;SDS011;26304;48.794;9.820;2023-12-20T08:31:36;0.60;;;0.50;;
40595;SDS011;26304;48.794;9.820;2023-12-20T08:33:58;0.70;;;0.63;;
40595;SDS011;26304;48.794;9.820;2023-12-20T08:36:21;0.65;;;0.65;;
40595;SDS011;26304;48.794;9.820;2023-12-20T08:38:44;0.60;;;0.60;;
40595;SDS011;26304;48.794;9.820;2023-12-20T08:41:07;3.10;;;0.80;;
40595;SDS011;26304;48.794;9.820;2023-12-20T08:43:29;0.75;;;0.70;;
40595;SDS011;26304;48.794;9.820;2023-12-20T08:45:53;0.60;;;0.60;;
40595;SDS011;26304;48.794;9.820;2023-12-20T08:48:15;1.42;;;0.60;;
40595;SDS011;26304;48.794;9.820;2023-12-20T08:50:37;0.75;;;0.60;;
40595;SDS011;26304;48.794;9.820;2023-12-20T08:53:00;0.60;;;0.60;;
40595;SDS011;26304;48.794;9.820;2023-12-20T08:55:22;0.57;;;0.50;;
40595;SDS011;26304;48.794;9.820;2023-12-20T08:57:45;0.82;;;0.50;;
40595;SDS011;26304;48.794;9.820;2023-12-20T09:00:07;0.75;;;0.60;;
40595;SDS011;26304;48.794;9.820;2023-12-20T09:02:32;0.65;;;0.65;;
40595;SDS011;26304;48.794;9.820;2023-12-20T09:04:56;1.40;;;1.30;;
40595;SDS011;26304;48.794;9.820;2023-12-20T09:07:22;1.60;;;1.50;;
40595;SDS011;26304;48.794;9.820;2023-12-20T09:09:45;2.28;;;2.17;;
40595;SDS011;26304;48.794;9.820;2023-12-20T09:12:08;2.70;;;2.50;;
40595;SDS011;26304;48.794;9.820;2023-12-20T09:14:30;2.40;;;2.20;;
40595;SDS011;26304;48.794;9.820;2023-12-20T09:16:52;2.20;;;2.08;;
40595;SDS011;26304;48.794;9.820;2023-12-20T09:19:18;2.08;;;1.90;;
40595;SDS011;26304;48.794;9.820;2023-12-20T09:21:40;2.08;;;1.88;;
40595;SDS011;26304;48.794;9.820;2023-12-20T09:24:03;2.05;;;1.95;;
40595;SDS011;26304;48.794;9.820;2023-12-20T09:26:26;2.15;;;1.88;;
40595;SDS011;26304;48.794;9.820;2023-12-20T09:28:48;2.90;;;1.63;;
40595;SDS011;26304;48.794;9.820;2023-12-20T09:31:10;1.60;;;1.50;;
40595;SDS011;26304;48.794;9.820;2023-12-20T09:33:33;3.30;;;1.45;;
40595;SDS011;26304;48.794;9.820;2023-12-20T09:35:57;2.97;;;1.52;;
40595;SDS011;26304;48.794;9.820;2023-12-20T09:38:20;1.60;;;1.20;;
40595;SDS011;26304;48.794;9.820;2023-12-20T09:40:43;1.23;;;1.13;;
40595;SDS011;26304;48.794;9.820;2023-12-20T09:43:08;2.08;;;1.40;;
40595;SDS011;26304;48.794;9.820;2023-12-20T09:45:32;2.78;;;1.50;;
40595;SDS011;26304;48.794;9.820;2023-12-20T09:47:55;1.63;;;1.38;;
40595;SDS011;26304;48.794;9.820;2023-12-20T09:50:20;2.00;;;1.23;;
40595;SDS011;26304;48.794;9.820;2023-12-20T09:52:44;2.78;;;1.40;;
40595;SDS011;26304;48.794;9.820;2023-12-20T09:55:11;1.15;;;1.05;;
40595;SDS011;26304;48.794;9.820;2023-12-20T09:57:34;1.58;;;1.23;;
40595;SDS011;26304;48.794;9.820;2023-12-20T09:59:57;0.90;;;0.90;;
40595;SDS011;26304;48.794;9.820;2023-12-20T10:02:20;2.00;;;1.30;;
40595;SDS011;26304;48.794;9.820;2023-12-20T10:04:48;1.90;;;1.30;;
40595;SDS011;26304;48.794;9.820;2023-12-20T10:07:10;1.13;;;1.02;;
40595;SDS011;26304;48.794;9.820;2023-12-20T10:09:34;0.90;;;0.90;;
40595;SDS011;26304;48.794;9.820;2023-12-20T10:11:56;1.25;;;0.82;;
40595;SDS011;26304;48.794;9.820;2023-12-20T10:14:19;1.42;;;0.82;;
40595;SDS011;26304;48.794;9.820;2023-12-20T10:16:43;1.02;;;0.93;;
40595;SDS011;26304;48.794;9.820;2023-12-20T10:19:06;1.67;;;1.02;;
40595;SDS011;26304;48.794;9.820;2023-12-20T10:21:28;1.45;;;0.95;;
40595;SDS011;26304;48.794;9.820;2023-12-20T10:23:51;1.15;;;1.05;;
40595;SDS011;26304;48.794;9.820;2023-12-20T10:26:20;1.42;;;1.33;;
40595;SDS011;26304;48.794;9.820;2023-12-20T10:28:42;1.63;;;1.00;;
40595;SDS011;26304;48.794;9.820;2023-12-20T10:31:05;0.80;;;0.80;;
40595;SDS011;26304;48.794;9.820;2023-12-20T10:33:28;2.00;;;1.05;;
40595;SDS011;26304;48.794;9.820;2023-12-20T10:35:55;0.82;;;0.82;;
40595;SDS011;26304;48.794;9.820;2023-12-20T10:38:17;1.58;;;1.00;;
40595;SDS011;26304;48.794;9.820;2023-12-20T10:40:40;1.17;;;1.08;;
40595;SDS011;26304;48.794;9.820;2023-12-20T10:43:04;0.98;;;0.98;;
40595;SDS011;26304;48.794;9.820;2023-12-20T10:45:26;1.45;;;0.82;;
40595;SDS011;26304;48.794;9.820;2023-12-20T10:47:49;0.95;;;0.82;;
40595;SDS011;26304;48.794;9.820;2023-12-20T10:50:12;1.23;;;0.88;;
40595;SDS011;26304;48.794;9.820;2023-12-20T10:52:34;0.80;;;0.80;;
40595;SDS011;26304;48.794;9.820;2023-12-20T10:54:58;1.20;;;0.90;;
40595;SDS011;26304;48.794;9.820;2023-12-20T10:57:20;2.03;;;1.02;;
40595;SDS011;26304;48.794;9.820;2023-12-20T10:59:45;0.95;;;0.95;;
40595;SDS011;26304;48.794;9.820;2023-12-20T11:02:08;1.10;;;0.82;;
40595;SDS011;26304;48.794;9.820;2023-12-20T11:04:35;0.98;;;0.90;;
40595;SDS011;26304;48.794;9.820;2023-12-20T11:07:03;1.40;;;1.00;;
40595;SDS011;26304;48.794;9.820;2023-12-20T11:09:38;0.73;;;0.73;;
40595;SDS011;26304;48.794;9.820;2023-12-20T11:12:07;0.93;;;0.80;;
40595;SDS011;26304;48.794;9.820;2023-12-20T11:14:42;1.65;;;1.00;;
40595;SDS011;26304;48.794;9.820;2023-12-20T11:17:10;0.80;;;0.80;;
40595;SDS011;26304;48.794;9.820;2023-12-20T11:19:38;1.38;;;0.90;;
40595;SDS011;26304;48.794;9.820;2023-12-20T11:22:22;0.70;;;0.70;;
40595;SDS011;26304;48.794;9.820;2023-12-20T11:24:47;1.00;;;0.93;;
40595;SDS011;26304;48.794;9.820;2023-12-20T11:27:10;1.05;;;0.90;;
40595;SDS011;26304;48.794;9.820;2023-12-20T11:29:35;0.90;;;0.90;;
40595;SDS011;26304;48.794;9.820;2023-12-20T11:32:00;0.85;;;0.85;;
40595;SDS011;26304;48.794;9.820;2023-12-20T11:34:26;0.80;;;0.80;;
40595;SDS011;26304;48.794;9.820;2023-12-20T11:36:49;1.13;;;0.82;;
40595;SDS011;26304;48.794;9.820;2023-12-20T11:39:20;0.85;;;0.70;;
40595;SDS011;26304;48.794;9.820;2023-12-20T11:41:44;0.90;;;0.90;;
40595;SDS011;26304;48.794;9.820;2023-12-20T11:44:06;3.13;;;0.90;;
40595;SDS011;26304;48.794;9.820;2023-12-20T11:46:30;2.15;;;1.10;;
40595;SDS011;26304;48.794;9.820;2023-12-20T11:48:55;4.15;;;0.88;;
40595;SDS011;26304;48.794;9.820;2023-12-20T11:51:18;4.45;;;1.08;;
40595;SDS011;26304;48.794;9.820;2023-12-20T11:53:40;4.72;;;1.17;;
40595;SDS011;26304;48.794;9.820;2023-12-20T11:56:04;6.22;;;1.40;;
40595;SDS011;26304;48.794;9.820;2023-12-20T11:58:27;3.25;;;1.10;;
40595;SDS011;26304;48.794;9.820;2023-12-20T12:00:50;3.10;;;0.98;;
40595;SDS011;26304;48.794;9.820;2023-12-20T12:03:14;1.15;;;0.85;;
40595;SDS011;26304;48.794;9.820;2023-12-20T12:05:39;2.75;;;1.08;;
40595;SDS011;26304;48.794;9.820;2023-12-20T12:08:01;1.98;;;1.20;;
40595;SDS011;26304;48.794;9.820;2023-12-20T12:10:24;2.17;;;1.10;;
40595;SDS011;26304;48.794;9.820;2023-12-20T12:12:46;5.32;;;1.30;;
40595;SDS011;26304;48.794;9.820;2023-12-20T12:15:09;2.55;;;0.90;;
40595;SDS011;26304;48.794;9.820;2023-12-20T12:17:32;2.63;;;1.15;;
40595;SDS011;26304;48.794;9.820;2023-12-20T12:20:01;3.30;;;0.98;;
40595;SDS011;26304;48.794;9.820;2023-12-20T12:22:26;2.75;;;0.75;;
40595;SDS011;26304;48.794;9.820;2023-12-20T12:24:49;3.47;;;1.00;;
40595;SDS011;26304;48.794;9.820;2023-12-20T12:27:11;3.15;;;1.13;;
40595;SDS011;26304;48.794;9.820;2023-12-20T12:29:34;2.47;;;1.00;;
40595;SDS011;26304;48.794;9.820;2023-12-20T12:31:57;1.58;;;1.00;;
40595;SDS011;26304;48.794;9.820;2023-12-20T12:34:19;1.10;;;0.70;;
40595;SDS011;26304;48.794;9.820;2023-12-20T12:36:42;2.30;;;1.02;;
40595;SDS011;26304;48.794;9.820;2023-12-20T12:39:06;1.38;;;1.00;;
40595;SDS011;26304;48.794;9.820;2023-12-20T12:41:28;2.33;;;1.00;;
40595;SDS011;26304;48.794;9.820;2023-12-20T12:43:51;5.40;;;1.10;;
40595;SDS011;26304;48.794;9.820;2023-12-20T12:46:14;1.95;;;0.80;;
40595;SDS011;26304;48.794;9.820;2023-12-20T12:48:36;2.35;;;1.13;;
40595;SDS011;26304;48.794;9.820;2023-12-20T12:50:59;2.70;;;0.80;;
40595;SDS011;26304;48.794;9.820;2023-12-20T12:53:22;2.75;;;1.10;;
40595;SDS011;26304;48.794;9.820;2023-12-20T12:55:46;2.30;;;1.02;;
40595;SDS011;26304;48.794;9.820;2023-12-20T12:58:08;1.55;;;1.00;;
40595;SDS011;26304;48.794;9.820;2023-12-20T13:00:30;1.60;;;1.00;;
40595;SDS011;26304;48.794;9.820;2023-12-20T13:02:53;0.80;;;0.80;;
40595;SDS011;26304;48.794;9.820;2023-12-20T13:05:15;1.70;;;0.90;;
40595;SDS011;26304;48.794;9.820;2023-12-20T13:07:38;2.67;;;0.77;;
40595;SDS011;26304;48.794;9.820;2023-12-20T13:10:01;2.13;;;0.88;;
40595;SDS011;26304;48.794;9.820;2023-12-20T13:12:25;0.93;;;0.70;;
40595;SDS011;26304;48.794;9.820;2023-12-20T13:14:48;1.15;;;0.60;;
40595;SDS011;26304;48.794;9.820;2023-12-20T13:17:10;0.82;;;0.82;;
40595;SDS011;26304;48.794;9.820;2023-12-20T13:19:33;1.27;;;0.68;;
40595;SDS011;26304;48.794;9.820;2023-12-20T13:21:55;2.03;;;1.00;;
40595;SDS011;26304;48.794;9.820;2023-12-20T13:24:17;1.23;;;0.80;;
40595;SDS011;26304;48.794;9.820;2023-12-20T13:26:39;0.70;;;0.70;;
40595;SDS011;26304;48.794;9.820;2023-12-20T13:29:03;1.02;;;0.75;;
40595;SDS011;26304;48.794;9.820;2023-12-20T13:31:25;1.10;;;0.75;;
40595;SDS011;26304;48.794;9.820;2023-12-20T13:33:47;1.90;;;0.68;;
40595;SDS011;26304;48.794;9.820;2023-12-20T13:36:09;0.88;;;0.70;;
40595;SDS011;26304;48.794;9.820;2023-12-20T13:38:32;1.55;;;0.68;;
40595;SDS011;26304;48.794;9.820;2023-12-20T13:40:54;1.35;;;0.63;;
40595;SDS011;26304;48.794;9.820;2023-12-20T13:43:19;1.60;;;0.60;;
40595;SDS011;26304;48.794;9.820;2023-12-20T13:45:44;0.80;;;0.80;;
40595;SDS011;26304;48.794;9.820;2023-12-20T13:48:07;1.48;;;0.77;;
40595;SDS011;26304;48.794;9.820;2023-12-20T13:50:29;0.95;;;0.85;;
40595;SDS011;26304;48.794;9.820;2023-12-20T13:52:52;0.80;;;0.80;;
40595;SDS011;26304;48.794;9.820;2023-12-20T13:55:14;0.70;;;0.70;;
40595;SDS011;26304;48.794;9.820;2023-12-20T13:57:37;0.85;;;0.68;;
40595;SDS011;26304;48.794;9.820;2023-12-20T14:00:00;0.85;;;0.60;;
40595;SDS011;26304;48.794;9.820;2023-12-20T14:02:25;0.88;;;0.70;;
40595;SDS011;26304;48.794;9.820;2023-12-20T14:04:48;1.90;;;1.08;;
40595;SDS011;26304;48.794;9.820;2023-12-20T14:07:10;1.10;;;0.80;;
40595;SDS011;26304;48.794;9.820;2023-12-20T14:09:33;1.23;;;0.95;;
40595;SDS011;26304;48.794;9.820;2023-12-20T14:11:55;1.20;;;0.75;;
40595;SDS011;26304;48.794;9.820;2023-12-20T14:14:18;0.70;;;0.60;;
40595;SDS011;26304;48.794;9.820;2023-12-20T14:16:41;1.30;;;0.98;;
40595;SDS011;26304;48.794;9.820;2023-12-20T14:19:07;1.05;;;0.60;;
40595;SDS011;26304;48.794;9.820;2023-12-20T14:21:30;1.02;;;0.80;;
40595;SDS011;26304;48.794;9.820;2023-12-20T14:23:52;1.58;;;0.70;;